sensor_id;sensor_type;location;lat;lon;timestamp;P1;P2;P0
77354;PMS7003;66422;51.202;19.936;2023-08-21T00:01:37;43.00;37.50;28.00
77354;PMS7003;66422;51.202;19.936;2023-08-21T00:16:57;38.33;32.67;24.00
77354;PMS7003;66422;51.202;19.936;2023-08-21T00:32:17;43.33;37.67;25.33
77354;PMS7003;66422;51.202;19.936;2023-08-21T00:47:37;44.50;36.50;25.00
77354;PMS7003;66422;51.202;19.936;2023-08-21T01:02:57;46.50;38.50;26.00
77354;PMS7003;66422;51.202;19.936;2023-08-21T01:18:16;45.00;37.00;24.00
77354;PMS7003;66422;51.202;19.936;2023-08-21T01:33:42;43.00;38.00;26.50
77354;PMS7003;66422;51.202;19.936;2023-08-21T01:49:05;48.00;40.00;28.00
77354;PMS7003;66422;51.202;19.936;2023-08-21T02:04:24;51.50;42.50;28.50
77354;PMS7003;66422;51.202;19.936;2023-08-21T02:19:44;46.50;39.00;27.00
77354;PMS7003;66422;51.202;19.936;2023-08-21T02:35:04;65.50;51.00;33.00
77354;PMS7003;66422;51.202;19.936;2023-08-21T02:50:25;46.00;40.00;27.00
77354;PMS7003;66422;51.202;19.936;2023-08-21T03:05:45;44.00;37.00;27.00
77354;PMS7003;66422;51.202;19.936;2023-08-21T03:21:05;46.25;39.25;27.00
77354;PMS7003;66422;51.202;19.936;2023-08-21T03:36:25;39.00;35.00;24.33
77354;PMS7003;66422;51.202;19.936;2023-08-21T03:51:51;46.00;39.00;27.00
77354;PMS7003;66422;51.202;19.936;2023-08-21T04:07:11;47.00;40.00;28.00
77354;PMS7003;66422;51.202;19.936;2023-08-21T04:22:31;45.00;38.00;27.00
77354;PMS7003;66422;51.202;19.936;2023-08-21T04:37:51;52.00;41.33;28.33
77354;PMS7003;66422;51.202;19.936;2023-08-21T04:53:13;47.00;39.50;27.50
77354;PMS7003;66422;51.202;19.936;2023-08-21T05:08:33;52.00;43.00;29.50
77354;PMS7003;66422;51.202;19.936;2023-08-21T05:23:54;62.67;51.00;34.00
77354;PMS7003;66422;51.202;19.936;2023-08-21T05:39:14;58.00;47.00;31.50
77354;PMS7003;66422;51.202;19.936;2023-08-21T05:54:33;50.00;42.33;27.33
77354;PMS7003;66422;51.202;19.936;2023-08-21T06:09:53;51.00;43.00;26.00
77354;PMS7003;66422;51.202;19.936;2023-08-21T06:25:13;52.67;42.67;29.33
77354;PMS7003;66422;51.202;19.936;2023-08-21T06:40:33;52.50;42.00;27.50
77354;PMS7003;66422;51.202;19.936;2023-08-21T06:55:56;35.33;33.00;22.67
77354;PMS7003;66422;51.202;19.936;2023-08-21T07:11:16;33.00;31.00;22.00
77354;PMS7003;66422;51.202;19.936;2023-08-21T07:26:38;31.00;25.00;21.00
77354;PMS7003;66422;51.202;19.936;2023-08-21T07:41:58;22.50;18.50;14.50
77354;PMS7003;66422;51.202;19.936;2023-08-21T07:57:17;15.00;13.00;10.00
77354;PMS7003;66422;51.202;19.936;2023-08-21T08:12:40;21.33;17.67;12.67
77354;PMS7003;66422;51.202;19.936;2023-08-21T08:28:01;15.67;14.67;12.00
77354;PMS7003;66422;51.202;19.936;2023-08-21T08:43:21;18.67;16.00;13.67
77354;PMS7003;66422;51.202;19.936;2023-08-21T08:58:42;18.00;18.00;13.50
77354;PMS7003;66422;51.202;19.936;2023-08-21T09:14:04;18.50;16.00;11.50
77354;PMS7003;66422;51.202;19.936;2023-08-21T09:29:25;16.50;15.00;9.50
77354;PMS7003;66422;51.202;19.936;2023-08-21T09:44:45;20.67;18.00;12.33
77354;PMS7003;66422;51.202;19.936;2023-08-21T10:00:10;16.50;14.00;10.50
77354;PMS7003;66422;51.202;19.936;2023-08-21T10:15:35;15.00;15.00;11.67
77354;PMS7003;66422;51.202;19.936;2023-08-21T10:30:57;14.00;14.00;9.50
77354;PMS7003;66422;51.202;19.936;2023-08-21T10:46:52;16.00;16.00;11.00
77354;PMS7003;66422;51.202;19.936;2023-08-21T11:02:13;13.00;13.00;9.67
77354;PMS7003;66422;51.202;19.936;2023-08-21T11:17:33;8.00;8.00;7.00
77354;PMS7003;66422;51.202;19.936;2023-08-21T11:48:27;14.00;14.00;11.00
77354;PMS7003;66422;51.202;19.936;2023-08-21T12:03:47;19.00;15.50;11.50
77354;PMS7003;66422;51.202;19.936;2023-08-21T12:19:13;10.67;10.67;8.33
77354;PMS7003;66422;51.202;19.936;2023-08-21T12:34:33;12.50;10.00;7.50
77354;PMS7003;66422;51.202;19.936;2023-08-21T12:49:53;11.75;11.75;9.25
77354;PMS7003;66422;51.202;19.936;2023-08-21T13:05:13;9.00;9.00;9.00
77354;PMS7003;66422;51.202;19.936;2023-08-21T13:20:33;11.00;10.50;8.00
77354;PMS7003;66422;51.202;19.936;2023-08-21T13:35:52;10.00;10.00;8.00
77354;PMS7003;66422;51.202;19.936;2023-08-21T13:51:12;10.00;8.00;8.00
77354;PMS7003;66422;51.202;19.936;2023-08-21T14:06:32;8.33;7.00;5.67
77354;PMS7003;66422;51.202;19.936;2023-08-21T14:21:53;8.67;7.33;6.00
77354;PMS7003;66422;51.202;19.936;2023-08-21T14:37:13;8.00;8.00;6.25
77354;PMS7003;66422;51.202;19.936;2023-08-21T14:52:34;7.00;7.00;5.67
77354;PMS7003;66422;51.202;19.936;2023-08-21T15:07:54;8.33;7.33;6.33
77354;PMS7003;66422;51.202;19.936;2023-08-21T15:23:14;7.67;7.67;7.00
77354;PMS7003;66422;51.202;19.936;2023-08-21T15:38:33;8.00;6.00;5.00
77354;PMS7003;66422;51.202;19.936;2023-08-21T15:53:54;6.50;6.00;5.00
77354;PMS7003;66422;51.202;19.936;2023-08-21T16:09:13;8.00;8.00;7.00
77354;PMS7003;66422;51.202;19.936;2023-08-21T16:24:33;8.00;7.00;6.00
77354;PMS7003;66422;51.202;19.936;2023-08-21T16:39:53;8.67;7.67;6.67
77354;PMS7003;66422;51.202;19.936;2023-08-21T16:55:12;9.00;8.50;7.00
77354;PMS7003;66422;51.202;19.936;2023-08-21T17:10:32;8.33;8.33;6.00
77354;PMS7003;66422;51.202;19.936;2023-08-21T17:25:51;11.00;11.00;11.00
77354;PMS7003;66422;51.202;19.936;2023-08-21T17:41:13;10.50;9.50;7.00
77354;PMS7003;66422;51.202;19.936;2023-08-21T17:56:33;17.67;17.33;14.00
77354;PMS7003;66422;51.202;19.936;2023-08-21T18:11:53;22.50;17.50;14.50
77354;PMS7003;66422;51.202;19.936;2023-08-21T18:27:13;19.00;14.50;12.50
77354;PMS7003;66422;51.202;19.936;2023-08-21T18:42:33;14.33;13.00;10.33
77354;PMS7003;66422;51.202;19.936;2023-08-21T18:57:53;24.50;22.50;16.00
77354;PMS7003;66422;51.202;19.936;2023-08-21T19:13:13;29.00;20.67;14.33
77354;PMS7003;66422;51.202;19.936;2023-08-21T19:28:33;23.50;18.50;16.00
77354;PMS7003;66422;51.202;19.936;2023-08-21T19:43:53;25.00;22.50;15.50
77354;PMS7003;66422;51.202;19.936;2023-08-21T19:59:12;20.00;19.00;15.00
77354;PMS7003;66422;51.202;19.936;2023-08-21T20:14:32;16.50;15.00;14.00
77354;PMS7003;66422;51.202;19.936;2023-08-21T20:29:52;24.50;21.50;15.50
77354;PMS7003;66422;51.202;19.936;2023-08-21T20:45:12;21.00;20.00;16.00
77354;PMS7003;66422;51.202;19.936;2023-08-21T21:00:32;17.50;17.50;12.50
77354;PMS7003;66422;51.202;19.936;2023-08-21T21:15:51;13.00;11.00;8.00
77354;PMS7003;66422;51.202;19.936;2023-08-21T21:31:11;22.00;19.00;14.50
77354;PMS7003;66422;51.202;19.936;2023-08-21T21:46:31;15.50;14.50;11.00
77354;PMS7003;66422;51.202;19.936;2023-08-21T22:01:50;16.00;16.00;12.50
77354;PMS7003;66422;51.202;19.936;2023-08-21T22:17:10;25.00;23.67;17.67
77354;PMS7003;66422;51.202;19.936;2023-08-21T22:32:30;22.25;20.25;16.25
77354;PMS7003;66422;51.202;19.936;2023-08-21T22:47:50;31.50;30.00;21.50
77354;PMS7003;66422;51.202;19.936;2023-08-21T23:03:09;14.00;14.00;11.00
77354;PMS7003;66422;51.202;19.936;2023-08-21T23:18:29;22.67;17.00;14.00
77354;PMS7003;66422;51.202;19.936;2023-08-21T23:33:49;37.00;28.00;20.00
77354;PMS7003;66422;51.202;19.936;2023-08-21T23:49:08;22.00;22.00;16.00
